Dallas, TX

1:09 PM CST on February 09, 2016 (GMT -0600)
Dallas Love | | Change Station
CLOSE
Current Station
Airport
Location: Dallas Love,
Elevation: 486 ft
Nearby Weather Stations
Active Advisory: Flood Warning

Elev 486 ft 32.85 °N, 96.86 °W | Updated 16 minutes ago

Clear
Clear
58 °F
Feels Like 58 °F
N
7
Wind Variable Wind from Variable

Today
High -- | Low -- °F
--% Chance of Precip.
Yesterday
High -- | Low -- °F
Precip. -- in
Pressure 30.26 in
Visibility 10.0 miles
Clouds Clear
Dew Point 22 °F
Humidity 25%
Rainfall 0.00 in
Snow Depth Not available.
7:16 AM 6:07 PM
New Moon, 2% visible
METAR KDAL 091853Z VRB06KT 10SM CLR 14/M06 A3026 RMK AO2 SLP247 T01441056
Pressure 30.26 in
Visibility 10.0 miles
Clouds Clear
Dew Point 22 °F
Humidity 25%
Rainfall 0.00 in
Snow Depth Not available.
7:16 AM 6:07 PM
New Moon, 2% visible
METAR KDAL 091853Z VRB06KT 10SM CLR 14/M06 A3026 RMK AO2 SLP247 T01441056

10-Day Weather Forecast

Almanac

Astronomy

Feb. 09, 2016 Rise Set
Actual Time
Civil Twilight
Nautical Twilight
Astronomical Twilight
Moon
Length of Visible Light
Length of Day
Tomorrow will be .
, % of the Moon is Illuminated

Today's Extremes

State Highs State Lows

Community

WunderPhotos

Upload Photos

1,891,664 photos uploaded!

WunderBlog® & News

Nearby

Air Quality

  Air Quality AQ Index Pollutant
Not available.

Snow Depth

Station Depth Elevation

Earthquake Activity

City Distance Mag. Time & Date
Minimum magnitude displayed is 2.5.

Coastal Water Temperatures

Place Temperature

Stations

Nearby Weather Stations

Station Location Temp. Windchill Dew Point Humidity Wind Precip. Elev Updated Type
                   

Watches & Warnings

Flood Warning
Issued: 9:56 AM CST Feb. 9, 2016 – National Weather Service

The Flood Warning continues for
the Elm Fork Trinity River near Carrollton.
* At 0915 am Tuesday the stage was 8.37 feet.
* Flood stage is 8 feet.
* Minor flooding is occurring and minor flooding is forecast.
* Forecast... the river will continue to hold steady near 8.37 feet
through late week.
* At 8 feet, minor flooding will occur downstream from the gauge.


Lat... Lon 3300 9700 3287 9699 3287 9687 3300 9688